createdAt,value
2018-05-31T00:02:20.816Z,24.70
2018-05-31T00:04:48.283Z,24.60
2018-05-31T00:07:16.559Z,24.60
2018-05-31T00:09:44.819Z,24.60
2018-05-31T00:12:12.289Z,24.60
2018-05-31T00:14:40.505Z,24.60
2018-05-31T00:17:07.997Z,24.60
2018-05-31T00:19:35.488Z,24.50
2018-05-31T00:22:03.748Z,24.40
2018-05-31T00:24:31.221Z,24.40
2018-05-31T00:26:59.566Z,24.40
2018-05-31T00:29:28.523Z,24.30
2018-05-31T00:31:55.998Z,24.30
2018-05-31T00:34:23.561Z,24.30
2018-05-31T00:36:51.022Z,24.30
2018-05-31T00:39:18.580Z,24.20
2018-05-31T00:41:46.041Z,24.20
2018-05-31T00:44:13.506Z,24.20
2018-05-31T00:46:40.965Z,24.20
2018-05-31T00:49:08.466Z,24.20
2018-05-31T00:51:35.909Z,24.20
2018-05-31T00:54:03.381Z,24.20
2018-05-31T00:56:30.833Z,24.10
2018-05-31T00:58:58.313Z,24.10
2018-05-31T01:01:25.757Z,24.10
2018-05-31T01:03:53.233Z,24.00
2018-05-31T01:06:20.710Z,24.00
2018-05-31T01:08:48.166Z,24.00
2018-05-31T01:11:15.730Z,23.90
2018-05-31T01:13:43.209Z,23.90
2018-05-31T01:16:10.692Z,23.80
2018-05-31T01:18:38.186Z,23.80
2018-05-31T01:21:05.654Z,23.80
2018-05-31T01:23:33.118Z,23.80
2018-05-31T01:26:01.360Z,23.70
2018-05-31T01:28:28.822Z,23.70
2018-05-31T01:30:56.311Z,23.70
2018-05-31T01:33:24.528Z,23.70
2018-05-31T01:35:52.017Z,23.70
2018-05-31T01:38:31.478Z,23.70
2018-05-31T01:40:59.759Z,23.70
2018-05-31T01:43:28.030Z,23.70
2018-05-31T01:45:56.284Z,23.70
2018-05-31T01:48:23.754Z,23.60
2018-05-31T01:50:52.717Z,23.60
2018-05-31T01:53:20.204Z,23.60
2018-05-31T01:55:48.422Z,23.60
2018-05-31T01:58:15.886Z,23.60
2018-05-31T02:00:43.334Z,23.60
2018-05-31T02:03:10.832Z,23.60
2018-05-31T02:05:38.312Z,23.50
2018-05-31T02:08:06.561Z,23.50
2018-05-31T02:10:34.009Z,23.50
2018-05-31T02:13:01.523Z,23.50
2018-05-31T02:15:28.993Z,23.50
2018-05-31T02:17:56.458Z,23.50
2018-05-31T02:20:23.915Z,23.40
2018-05-31T02:22:51.395Z,23.40
2018-05-31T02:25:18.845Z,23.40
2018-05-31T02:27:46.322Z,23.30
2018-05-31T02:30:13.765Z,23.30
2018-05-31T02:32:41.342Z,23.20
2018-05-31T02:35:08.837Z,23.20
2018-05-31T02:37:36.282Z,23.20
2018-05-31T02:40:03.756Z,23.20
2018-05-31T02:42:31.263Z,23.10
2018-05-31T02:44:58.807Z,23.10
2018-05-31T02:47:26.282Z,23.10
2018-05-31T02:49:53.749Z,23.10
2018-05-31T02:52:21.989Z,23.10
2018-05-31T02:54:49.460Z,23.00
2018-05-31T02:57:16.906Z,23.00
2018-05-31T02:59:44.394Z,23.00
2018-05-31T03:02:12.606Z,23.00
2018-05-31T03:04:40.090Z,23.00
2018-05-31T03:07:07.563Z,23.00
2018-05-31T03:09:35.130Z,23.00
2018-05-31T03:12:02.590Z,22.90
2018-05-31T03:14:30.048Z,23.00
2018-05-31T03:16:58.292Z,22.90
2018-05-31T03:19:25.759Z,22.90
2018-05-31T03:21:53.242Z,22.90
2018-05-31T03:24:21.470Z,22.90
2018-05-31T03:26:48.965Z,22.90
2018-05-31T03:29:17.209Z,22.80
2018-05-31T03:31:44.676Z,22.80
2018-05-31T03:34:12.138Z,22.70
2018-05-31T03:36:39.694Z,22.70
2018-05-31T03:39:07.163Z,22.70
2018-05-31T03:41:34.623Z,22.70
2018-05-31T03:44:02.846Z,22.60
2018-05-31T03:46:30.310Z,22.60
2018-05-31T03:48:57.750Z,22.50
2018-05-31T03:51:25.266Z,22.50
2018-05-31T03:53:53.553Z,22.50
2018-05-31T03:56:20.965Z,22.50
2018-05-31T03:58:48.464Z,22.50
2018-05-31T04:01:16.717Z,22.50
2018-05-31T04:03:45.115Z,22.50
2018-05-31T04:06:13.368Z,22.60
2018-05-31T04:08:40.854Z,22.50
2018-05-31T04:11:09.094Z,22.50
2018-05-31T04:13:36.655Z,22.50
2018-05-31T04:16:04.217Z,22.50
2018-05-31T04:18:31.706Z,22.50
2018-05-31T04:20:59.913Z,22.60
2018-05-31T04:23:27.361Z,22.50
2018-05-31T04:25:54.829Z,22.50
2018-05-31T04:28:22.314Z,22.50
2018-05-31T04:30:49.865Z,22.50
2018-05-31T04:33:17.445Z,22.50
2018-05-31T04:35:44.979Z,22.50
2018-05-31T04:38:12.432Z,22.50
2018-05-31T04:40:39.896Z,22.60
2018-05-31T04:43:07.354Z,22.60
2018-05-31T04:45:34.822Z,22.60
2018-05-31T04:48:02.270Z,22.60
2018-05-31T04:50:29.745Z,22.60
2018-05-31T04:52:57.190Z,22.60
2018-05-31T04:55:24.671Z,22.60
2018-05-31T04:57:52.887Z,22.70
2018-05-31T05:00:20.354Z,22.60
2018-05-31T05:02:47.827Z,22.60
2018-05-31T05:05:15.313Z,22.60
2018-05-31T05:07:43.527Z,22.60
2018-05-31T05:10:11.002Z,22.60
2018-05-31T05:12:38.481Z,22.60
2018-05-31T05:15:05.943Z,22.60
2018-05-31T05:17:34.186Z,22.70
2018-05-31T05:20:01.661Z,22.70
2018-05-31T05:22:29.113Z,22.80
2018-05-31T05:24:56.604Z,22.70
2018-05-31T05:27:24.822Z,22.70
2018-05-31T05:29:52.290Z,22.70
2018-05-31T05:32:19.769Z,22.80
2018-05-31T05:34:47.213Z,22.80
2018-05-31T05:37:14.665Z,22.80
2018-05-31T05:39:42.269Z,22.80
2018-05-31T05:42:09.747Z,22.80
2018-05-31T05:44:37.209Z,22.80
2018-05-31T05:47:04.682Z,22.90
2018-05-31T05:49:32.139Z,22.90
2018-05-31T05:51:59.714Z,22.90
2018-05-31T05:54:27.201Z,23.00
2018-05-31T05:56:55.433Z,23.10
2018-05-31T05:59:22.939Z,23.10
2018-05-31T06:01:50.417Z,23.10
2018-05-31T06:04:17.955Z,23.20
2018-05-31T06:06:45.498Z,23.20
2018-05-31T06:09:13.761Z,23.30
2018-05-31T06:11:41.214Z,23.30
2018-05-31T06:14:08.716Z,23.30
2018-05-31T06:16:36.158Z,23.30
2018-05-31T06:19:03.643Z,23.30
2018-05-31T06:21:31.135Z,23.30
2018-05-31T06:23:58.599Z,23.40
2018-05-31T06:26:26.180Z,23.40
2018-05-31T06:28:54.290Z,23.40
2018-05-31T06:31:21.770Z,23.40
2018-05-31T06:33:49.993Z,23.50
2018-05-31T06:36:17.510Z,23.50
2018-05-31T06:38:44.964Z,23.60
2018-05-31T06:41:12.426Z,23.60
2018-05-31T06:43:39.880Z,23.70
2018-05-31T06:46:07.350Z,23.80
2018-05-31T06:48:35.579Z,23.80
2018-05-31T06:51:03.074Z,23.80
2018-05-31T06:53:30.623Z,23.90
2018-05-31T06:55:58.172Z,24.00
2018-05-31T06:58:25.675Z,24.00
2018-05-31T07:00:53.957Z,24.00
2018-05-31T07:03:21.484Z,24.00
2018-05-31T07:05:49.042Z,24.00
2018-05-31T07:08:16.495Z,24.00
2018-05-31T07:10:43.959Z,24.10
2018-05-31T07:13:12.226Z,24.10
2018-05-31T07:15:39.802Z,24.10
2018-05-31T07:18:08.890Z,24.20
2018-05-31T07:20:37.154Z,24.20
2018-05-31T07:23:04.658Z,24.20
2018-05-31T07:25:32.111Z,24.30
2018-05-31T07:27:59.581Z,24.30
2018-05-31T07:30:27.080Z,24.40
2018-05-31T07:32:54.626Z,24.40
2018-05-31T07:35:22.129Z,24.40
2018-05-31T07:37:50.380Z,24.40
2018-05-31T07:40:17.947Z,24.40
2018-05-31T07:42:45.411Z,24.40
2018-05-31T07:45:14.262Z,24.30
2018-05-31T07:47:41.727Z,24.40
2018-05-31T07:50:09.188Z,24.30
2018-05-31T07:52:39.206Z,24.40
2018-05-31T07:55:06.658Z,24.40
2018-05-31T07:57:34.115Z,24.40
2018-05-31T08:00:01.598Z,24.40
2018-05-31T08:02:29.817Z,24.50
2018-05-31T08:04:57.294Z,24.50
2018-05-31T08:07:24.738Z,24.50
2018-05-31T08:09:52.232Z,24.50
2018-05-31T08:12:20.476Z,24.50
2018-05-31T08:14:47.931Z,24.50
2018-05-31T08:17:15.404Z,24.60
2018-05-31T08:19:42.867Z,24.60
2018-05-31T08:22:10.375Z,24.70
2018-05-31T08:24:37.862Z,24.70
2018-05-31T08:27:05.386Z,24.80
2018-05-31T08:29:32.851Z,24.80
2018-05-31T08:32:00.402Z,24.80
2018-05-31T08:34:27.889Z,24.90
2018-05-31T08:36:55.383Z,24.90
2018-05-31T08:39:23.597Z,25.00
2018-05-31T08:41:51.047Z,25.00
2018-05-31T08:44:18.547Z,25.10
2018-05-31T08:46:45.991Z,25.10
2018-05-31T08:49:13.485Z,25.10
2018-05-31T08:51:41.726Z,25.20
2018-05-31T08:54:09.203Z,25.20
2018-05-31T08:56:36.642Z,25.30
2018-05-31T08:59:04.149Z,25.30
2018-05-31T09:01:31.592Z,25.40
2018-05-31T09:03:59.086Z,25.40
2018-05-31T09:06:26.539Z,25.40
2018-05-31T09:08:54.010Z,25.40
2018-05-31T09:11:21.472Z,25.50
2018-05-31T09:13:48.949Z,25.50
2018-05-31T09:16:16.428Z,25.50
2018-05-31T09:18:44.668Z,25.60
2018-05-31T09:21:12.126Z,25.60
2018-05-31T09:23:39.602Z,25.60
2018-05-31T09:26:07.158Z,25.60
2018-05-31T09:28:35.424Z,25.60
2018-05-31T09:31:02.887Z,25.60
2018-05-31T09:33:31.136Z,25.70
2018-05-31T09:35:58.618Z,25.70
2018-05-31T09:38:26.086Z,25.70
2018-05-31T09:40:54.367Z,25.70
2018-05-31T09:43:22.602Z,25.80
2018-05-31T09:45:50.206Z,25.70
2018-05-31T09:48:17.768Z,25.80
2018-05-31T09:50:45.474Z,25.90
2018-05-31T09:53:12.973Z,25.90
2018-05-31T09:55:41.499Z,26.00
2018-05-31T09:58:08.989Z,26.00
2018-05-31T10:00:38.519Z,26.10
2018-05-31T10:03:06.755Z,26.20
2018-05-31T10:05:34.231Z,26.20
2018-05-31T10:08:02.604Z,26.30
2018-05-31T10:10:30.425Z,26.20
2018-05-31T10:12:58.031Z,26.30
2018-05-31T10:15:25.663Z,26.30
2018-05-31T10:17:53.132Z,26.40
2018-05-31T10:20:20.636Z,26.40
2018-05-31T10:22:48.188Z,26.50
2018-05-31T10:25:16.435Z,26.60
2018-05-31T10:27:44.011Z,26.50
2018-05-31T10:30:12.287Z,26.70
2018-05-31T10:32:39.722Z,26.70
2018-05-31T10:35:07.216Z,26.80
2018-05-31T10:37:34.701Z,26.80
2018-05-31T10:40:02.187Z,26.90
2018-05-31T10:42:29.661Z,27.00
2018-05-31T10:44:57.907Z,27.20
2018-05-31T10:47:25.374Z,27.10
2018-05-31T10:49:52.874Z,27.20
2018-05-31T10:52:20.327Z,27.30
2018-05-31T10:54:47.792Z,27.40
2018-05-31T10:57:15.282Z,27.50
2018-05-31T10:59:42.763Z,27.70
2018-05-31T11:02:10.250Z,27.80
2018-05-31T11:04:38.489Z,28.10
2018-05-31T11:07:06.072Z,28.00
2018-05-31T11:09:34.298Z,28.30
2018-05-31T11:12:01.915Z,28.30
2018-05-31T11:14:30.124Z,28.50
2018-05-31T11:16:57.620Z,28.40
2018-05-31T11:19:25.080Z,28.50
2018-05-31T11:21:52.599Z,28.60
2018-05-31T11:24:20.068Z,28.70
2018-05-31T11:26:47.684Z,28.90
2018-05-31T11:29:16.000Z,29.20
2018-05-31T11:31:44.210Z,29.40
2018-05-31T11:34:11.796Z,29.30
2018-05-31T11:36:40.050Z,29.60
2018-05-31T11:39:08.316Z,29.80
2018-05-31T11:41:36.067Z,29.80
2018-05-31T11:44:03.572Z,30.00
2018-05-31T11:46:31.813Z,30.40
2018-05-31T11:48:59.390Z,30.30
2018-05-31T11:51:27.626Z,30.60
2018-05-31T11:53:55.198Z,30.60
2018-05-31T11:56:22.703Z,30.70
2018-05-31T11:58:50.920Z,30.80
2018-05-31T12:01:18.382Z,30.70
2018-05-31T12:03:45.945Z,30.80
2018-05-31T12:06:13.418Z,30.90
2018-05-31T12:08:41.653Z,31.10
2018-05-31T12:11:09.134Z,31.10
2018-05-31T12:13:36.631Z,31.20
2018-05-31T12:16:04.094Z,31.30
2018-05-31T12:18:31.620Z,31.30
2018-05-31T12:20:59.882Z,31.40
2018-05-31T12:23:28.122Z,31.40
2018-05-31T12:25:55.616Z,31.40
2018-05-31T12:28:23.083Z,31.50
2018-05-31T12:30:51.330Z,31.70
2018-05-31T12:33:18.895Z,31.70
2018-05-31T12:35:46.391Z,31.80
2018-05-31T12:38:13.869Z,31.90
2018-05-31T12:40:41.359Z,32.00
2018-05-31T12:43:09.332Z,32.00
2018-05-31T12:45:36.812Z,31.90
2018-05-31T12:48:05.075Z,32.10
2018-05-31T12:50:32.562Z,32.00
2018-05-31T12:53:00.068Z,32.10
2018-05-31T12:55:27.517Z,32.20
2018-05-31T12:57:55.004Z,32.30
2018-05-31T13:00:22.459Z,32.40
2018-05-31T13:02:51.471Z,32.50
2018-05-31T13:05:19.724Z,32.70
2018-05-31T13:07:47.186Z,32.70
2018-05-31T13:10:15.421Z,33.00
2018-05-31T13:12:42.909Z,33.00
2018-05-31T13:15:10.361Z,33.10
2018-05-31T13:17:37.860Z,33.10
2018-05-31T13:20:06.101Z,33.40
2018-05-31T13:22:33.597Z,33.30
2018-05-31T13:25:01.064Z,33.40
2018-05-31T13:27:28.522Z,33.40
2018-05-31T13:29:56.069Z,33.50
2018-05-31T13:32:23.515Z,33.40
2018-05-31T13:34:51.031Z,33.10
2018-05-31T13:37:18.486Z,33.00
2018-05-31T13:39:45.982Z,33.00
2018-05-31T13:42:14.218Z,32.90
2018-05-31T13:44:41.733Z,32.90
2018-05-31T13:47:09.185Z,32.90
2018-05-31T13:49:36.699Z,32.70
2018-05-31T13:52:04.182Z,32.30
2018-05-31T13:54:32.396Z,32.10
2018-05-31T13:56:59.928Z,32.00
2018-05-31T13:59:27.441Z,31.80
2018-05-31T14:01:54.916Z,31.70
2018-05-31T14:04:22.361Z,31.70
2018-05-31T14:06:49.848Z,31.80
2018-05-31T14:09:17.328Z,31.90
2018-05-31T14:11:44.818Z,31.80
2018-05-31T14:14:12.284Z,31.60
2018-05-31T14:16:39.854Z,31.50
2018-05-31T14:19:08.232Z,31.50
2018-05-31T14:21:35.702Z,31.50
2018-05-31T14:24:03.191Z,31.20
2018-05-31T14:26:30.676Z,30.90
2018-05-31T14:28:58.172Z,30.60
2018-05-31T14:31:26.436Z,30.20
2018-05-31T14:33:54.680Z,30.20
2018-05-31T14:36:22.188Z,30.20
2018-05-31T14:38:49.668Z,30.30
2018-05-31T14:41:17.166Z,30.30
2018-05-31T14:43:44.647Z,30.40
2018-05-31T14:46:12.870Z,30.40
2018-05-31T14:48:40.465Z,30.40
2018-05-31T14:51:07.906Z,30.40
2018-05-31T14:53:35.378Z,30.30
2018-05-31T14:56:03.633Z,30.20
2018-05-31T14:58:31.108Z,30.20
2018-05-31T15:00:58.623Z,30.20
2018-05-31T15:03:26.103Z,30.20
2018-05-31T15:05:53.593Z,30.30
2018-05-31T15:08:21.867Z,30.50
2018-05-31T15:10:50.142Z,30.70
2018-05-31T15:13:18.370Z,30.70
2018-05-31T15:15:45.841Z,30.70
2018-05-31T15:18:13.297Z,30.80
2018-05-31T15:20:40.770Z,30.70
2018-05-31T15:23:09.032Z,30.70
2018-05-31T15:25:36.510Z,30.70
2018-05-31T15:28:04.013Z,30.70
2018-05-31T15:30:31.504Z,30.50
2018-05-31T15:32:59.817Z,30.50
2018-05-31T15:35:28.079Z,30.30
2018-05-31T15:37:56.320Z,30.20
2018-05-31T15:40:23.820Z,30.20
2018-05-31T15:42:52.074Z,30.10
2018-05-31T15:45:19.633Z,30.00
2018-05-31T15:47:47.131Z,30.00
2018-05-31T15:50:14.596Z,29.90
2018-05-31T15:52:42.056Z,29.80
2018-05-31T16:01:05.382Z,29.50
2018-05-31T16:03:32.845Z,29.40
2018-05-31T16:06:01.155Z,29.20
2018-05-31T16:08:28.871Z,29.20
2018-05-31T16:10:56.498Z,29.20
2018-05-31T16:13:23.996Z,29.10
2018-05-31T16:15:51.780Z,29.00
2018-05-31T16:18:20.045Z,29.00
2018-05-31T16:20:48.300Z,28.90
2018-05-31T16:23:15.790Z,28.90
2018-05-31T16:25:43.433Z,28.90
2018-05-31T16:28:11.045Z,28.80
2018-05-31T16:30:38.587Z,28.80
2018-05-31T16:33:06.266Z,28.80
2018-05-31T16:35:33.920Z,28.60
2018-05-31T16:38:01.532Z,28.60
2018-05-31T16:40:29.050Z,28.60
2018-05-31T16:42:56.719Z,28.60
2018-05-31T16:45:24.342Z,28.60
2018-05-31T16:47:51.930Z,28.60
2018-05-31T16:50:19.510Z,28.70
2018-05-31T16:52:46.993Z,28.70
2018-05-31T16:55:14.576Z,28.70
2018-05-31T16:57:42.596Z,28.80
2018-05-31T17:00:10.117Z,28.80
2018-05-31T17:02:37.690Z,28.90
2018-05-31T17:05:05.167Z,28.90
2018-05-31T17:07:32.704Z,28.90
2018-05-31T17:10:00.285Z,28.90
2018-05-31T17:12:27.759Z,29.00
2018-05-31T17:14:55.296Z,29.00
2018-05-31T17:17:22.825Z,29.00
2018-05-31T17:19:50.431Z,29.00
2018-05-31T17:22:17.944Z,29.00
2018-05-31T17:24:45.377Z,29.00
2018-05-31T17:27:12.883Z,29.00
2018-05-31T17:29:40.383Z,29.00
2018-05-31T17:32:08.723Z,29.00
2018-05-31T17:34:36.197Z,29.00
2018-05-31T17:37:04.572Z,29.00
2018-05-31T17:39:32.023Z,29.00
2018-05-31T17:41:59.711Z,28.90
2018-05-31T17:44:27.945Z,28.90
2018-05-31T17:46:55.446Z,28.80
2018-05-31T17:49:23.845Z,28.60
2018-05-31T17:51:51.511Z,28.60
2018-05-31T17:54:19.195Z,28.60
2018-05-31T17:56:46.745Z,28.50
2018-05-31T17:59:14.209Z,28.50
2018-05-31T18:01:41.690Z,28.40
2018-05-31T18:04:09.129Z,28.30
2018-05-31T18:06:36.673Z,28.30
2018-05-31T18:09:04.138Z,28.20
2018-05-31T18:11:31.614Z,28.20
2018-05-31T18:13:59.080Z,28.20
2018-05-31T18:16:26.635Z,28.10
2018-05-31T18:18:54.171Z,28.10
2018-05-31T18:21:21.724Z,28.00
2018-05-31T18:23:49.225Z,28.00
2018-05-31T18:26:17.661Z,27.90
2018-05-31T18:28:45.576Z,27.90
2018-05-31T18:31:13.914Z,27.90
2018-05-31T18:33:41.393Z,27.80
2018-05-31T18:36:08.852Z,27.80
2018-05-31T18:38:37.837Z,27.80
2018-05-31T18:41:05.315Z,27.80
2018-05-31T18:43:33.633Z,27.80
2018-05-31T18:46:01.094Z,27.80
2018-05-31T18:48:28.666Z,27.70
2018-05-31T18:50:56.250Z,27.70
2018-05-31T18:53:23.906Z,27.70
2018-05-31T18:55:51.460Z,27.70
2018-05-31T18:58:18.914Z,27.60
2018-05-31T19:00:46.400Z,27.60
2018-05-31T19:03:14.630Z,27.50
2018-05-31T19:05:42.180Z,27.50
2018-05-31T19:08:09.970Z,27.50
2018-05-31T19:10:37.641Z,27.40
2018-05-31T19:13:11.217Z,27.40
2018-05-31T19:15:38.811Z,27.40
2018-05-31T19:18:07.097Z,27.30
2018-05-31T19:20:35.686Z,27.30
2018-05-31T19:23:03.305Z,27.20
2018-05-31T19:25:31.102Z,27.20
2018-05-31T19:27:58.689Z,27.20
2018-05-31T19:30:32.007Z,27.20
2018-05-31T19:33:00.711Z,27.10
2018-05-31T19:35:33.986Z,27.00
2018-05-31T19:38:01.554Z,27.00
2018-05-31T19:40:29.053Z,27.00
2018-05-31T19:43:03.069Z,26.90
2018-05-31T19:45:30.565Z,26.90
2018-05-31T19:47:58.055Z,26.90
2018-05-31T19:50:25.557Z,26.90
2018-05-31T19:52:58.574Z,26.80
2018-05-31T19:55:26.089Z,26.80
2018-05-31T19:57:59.395Z,26.70
2018-05-31T20:00:32.727Z,26.70
2018-05-31T20:03:05.890Z,26.70
2018-05-31T20:05:33.391Z,26.70
2018-05-31T20:08:00.838Z,26.70
2018-05-31T20:10:28.391Z,26.60
2018-05-31T20:12:55.875Z,26.60
2018-05-31T20:15:24.120Z,26.50
2018-05-31T20:17:51.578Z,26.50
2018-05-31T20:20:19.056Z,26.40
2018-05-31T20:22:47.290Z,26.30
2018-05-31T20:25:14.782Z,26.30
2018-05-31T20:27:43.014Z,26.30
2018-05-31T20:30:10.513Z,26.30
2018-05-31T20:32:38.724Z,26.30
2018-05-31T20:35:06.210Z,26.30
2018-05-31T20:37:33.706Z,26.30
2018-05-31T20:40:01.211Z,26.40
2018-05-31T20:42:28.730Z,26.40
2018-05-31T20:44:56.987Z,26.30
2018-05-31T20:47:24.468Z,26.30
2018-05-31T20:49:51.953Z,26.30
2018-05-31T20:52:19.473Z,26.30
2018-05-31T20:54:47.699Z,26.30
2018-05-31T20:57:15.192Z,26.30
2018-05-31T20:59:42.905Z,26.30
2018-05-31T21:02:10.389Z,26.30
2018-05-31T21:04:37.867Z,26.20
2018-05-31T21:07:05.342Z,26.20
2018-05-31T21:09:33.578Z,26.20
2018-05-31T21:12:01.054Z,26.20
2018-05-31T21:14:29.309Z,26.20
2018-05-31T21:16:56.784Z,26.20
2018-05-31T21:19:24.259Z,26.30
2018-05-31T21:21:52.509Z,26.30
2018-05-31T21:24:19.995Z,26.30
2018-05-31T21:26:47.484Z,26.20
2018-05-31T21:29:14.992Z,26.20
2018-05-31T21:31:42.467Z,26.20
2018-05-31T21:34:09.956Z,26.20
2018-05-31T21:36:37.427Z,26.20
2018-05-31T21:39:05.630Z,26.20
2018-05-31T21:41:33.093Z,26.20
2018-05-31T21:44:00.632Z,26.20
2018-05-31T21:46:28.115Z,26.20
2018-05-31T21:48:56.351Z,26.20
2018-05-31T21:51:23.937Z,26.10
2018-05-31T21:53:51.402Z,26.20
2018-05-31T21:56:19.665Z,26.10
2018-05-31T21:58:47.923Z,26.10
2018-05-31T22:01:15.409Z,26.10
2018-05-31T22:03:43.651Z,26.00
2018-05-31T22:06:11.136Z,26.00
2018-05-31T22:08:38.597Z,25.90
2018-05-31T22:11:06.847Z,25.60
2018-05-31T22:13:34.292Z,25.60
2018-05-31T22:16:01.772Z,25.50
2018-05-31T22:18:29.800Z,25.20
2018-05-31T22:20:57.276Z,24.60
2018-05-31T22:23:24.762Z,24.20
2018-05-31T22:25:53.001Z,23.40
2018-05-31T22:28:20.482Z,23.30
2018-05-31T22:30:47.956Z,23.10
2018-05-31T22:33:16.202Z,22.70
2018-05-31T22:35:43.685Z,22.70
2018-05-31T22:38:11.915Z,22.30
2018-05-31T22:40:39.370Z,22.30
2018-05-31T22:43:06.848Z,22.00
2018-05-31T22:45:34.320Z,21.90
2018-05-31T22:48:02.592Z,21.80
2018-05-31T22:50:30.031Z,21.70
2018-05-31T22:52:57.514Z,21.70
2018-05-31T22:55:25.763Z,21.60
2018-05-31T22:57:53.228Z,21.50
2018-05-31T23:00:20.712Z,21.60
2018-05-31T23:02:48.910Z,21.50
2018-05-31T23:05:16.419Z,21.50
2018-05-31T23:07:43.867Z,21.60
2018-05-31T23:10:11.352Z,21.60
2018-05-31T23:12:39.559Z,21.40
2018-05-31T23:15:07.049Z,21.40
2018-05-31T23:17:34.486Z,21.30
2018-05-31T23:20:01.974Z,21.30
2018-05-31T23:22:30.213Z,21.10
2018-05-31T23:24:57.690Z,21.10
2018-05-31T23:27:25.134Z,21.00
2018-05-31T23:29:52.590Z,21.00
2018-05-31T23:32:20.079Z,21.10
2018-05-31T23:34:47.538Z,21.00
2018-05-31T23:37:15.775Z,21.00
2018-05-31T23:39:43.230Z,21.00
2018-05-31T23:42:10.687Z,21.00
2018-05-31T23:44:38.144Z,21.00
2018-05-31T23:47:05.731Z,21.10
2018-05-31T23:49:33.231Z,21.10
2018-05-31T23:52:00.656Z,21.10
2018-05-31T23:54:28.878Z,21.10
2018-05-31T23:56:56.342Z,21.10
2018-05-31T23:59:23.792Z,21.10
